createdAt,value
2023-02-11T00:01:35.453Z,102446.34
2023-02-11T00:05:37.145Z,102440.56
2023-02-11T00:09:38.605Z,102437.34
2023-02-11T00:13:40.291Z,102444.31
2023-02-11T00:17:41.746Z,102454.22
2023-02-11T00:21:43.223Z,102451.44
2023-02-11T00:25:45.640Z,102462.13
2023-02-11T00:29:47.126Z,102476.34
2023-02-11T00:33:48.904Z,102466.72
2023-02-11T00:37:52.632Z,102450.66
2023-02-11T00:41:54.104Z,102444.78
2023-02-11T00:45:55.574Z,102433.09
2023-02-11T00:49:57.070Z,102430.31
2023-02-11T00:53:58.554Z,102453.66
2023-02-11T00:58:00.113Z,102458.81
2023-02-11T01:02:01.643Z,102464.09
2023-02-11T01:06:03.493Z,102450.41
2023-02-11T01:10:05.383Z,102442.53
2023-02-11T01:14:06.904Z,102433.38
2023-02-11T01:18:08.333Z,102428.63
2023-02-11T01:22:09.867Z,102420.09
2023-02-11T01:26:11.410Z,102399.94
2023-02-11T01:30:14.107Z,102379.19
2023-02-11T01:34:16.158Z,102382.16
2023-02-11T01:38:23.605Z,102386.31
2023-02-11T01:42:25.124Z,102375.13
2023-02-11T01:46:29.671Z,102387.44
2023-02-11T01:50:31.647Z,102373.47
2023-02-11T01:54:55.359Z,102360.94
2023-02-11T01:59:03.846Z,102356.03
2023-02-11T02:03:10.226Z,102343.22
2023-02-11T02:07:19.802Z,102345.19
2023-02-11T02:11:21.293Z,102341.94
2023-02-11T02:15:34.502Z,102349.53
2023-02-11T02:20:19.986Z,102345.22
2023-02-11T02:24:39.701Z,102329.28
2023-02-11T02:29:19.587Z,102337.59
2023-02-11T02:33:25.376Z,102323.97
2023-02-11T02:37:29.534Z,102333.06
2023-02-11T02:41:34.286Z,102334.44
2023-02-11T02:45:35.692Z,102321.00
2023-02-11T02:49:37.089Z,102311.66
2023-02-11T02:53:54.181Z,102297.06
2023-02-11T02:58:10.468Z,102303.13
2023-02-11T03:02:24.811Z,102322.53
2023-02-11T03:06:48.333Z,102305.28
2023-02-11T03:10:53.102Z,102287.22
2023-02-11T03:14:54.588Z,102286.97
2023-02-11T03:19:21.407Z,102284.56
2023-02-11T03:23:35.169Z,102267.81
2023-02-11T03:27:53.012Z,102275.22
2023-02-11T03:32:00.572Z,102283.75
2023-02-11T03:36:15.099Z,102283.22
2023-02-11T03:40:23.652Z,102296.88
2023-02-11T03:44:28.612Z,102302.16
2023-02-11T03:48:34.883Z,102290.06
2023-02-11T03:52:38.087Z,102290.34
2023-02-11T03:56:51.115Z,102282.66
2023-02-11T04:00:52.739Z,102297.78
2023-02-11T04:04:54.315Z,102293.94
2023-02-11T04:08:56.200Z,102289.00
2023-02-11T04:12:57.658Z,102294.47
2023-02-11T04:16:59.085Z,102284.63
2023-02-11T04:21:00.601Z,102289.25
2023-02-11T04:25:02.230Z,102285.97
2023-02-11T04:29:03.724Z,102286.81
2023-02-11T04:33:05.165Z,102287.91
2023-02-11T04:37:06.754Z,102280.78
2023-02-11T04:41:08.288Z,102272.56
2023-02-11T04:45:09.830Z,102272.00
2023-02-11T04:49:13.920Z,102268.69
2023-02-11T04:53:15.363Z,102258.28
2023-02-11T04:57:17.076Z,102262.94
2023-02-11T05:01:18.652Z,102260.47
2023-02-11T05:05:20.116Z,102249.75
2023-02-11T05:09:21.728Z,102246.97
2023-02-11T05:13:23.335Z,102243.97
2023-02-11T05:17:24.831Z,102240.16
2023-02-11T05:21:26.461Z,102217.09
2023-02-11T05:25:27.856Z,102220.97
2023-02-11T05:29:29.444Z,102219.84
2023-02-11T05:33:31.006Z,102210.50
2023-02-11T05:37:32.486Z,102203.09
2023-02-11T05:41:33.989Z,102201.72
2023-02-11T05:45:35.515Z,102197.88
2023-02-11T05:49:36.974Z,102196.78
2023-02-11T05:53:38.427Z,102188.00
2023-02-11T05:57:39.901Z,102184.13
2023-02-11T06:01:41.621Z,102199.00
2023-02-11T06:05:44.888Z,102203.91
2023-02-11T06:09:46.431Z,102203.38
2023-02-11T06:13:47.855Z,102206.63
2023-02-11T06:17:49.318Z,102221.44
2023-02-11T06:21:50.740Z,102219.44
2023-02-11T06:25:53.297Z,102216.16
2023-02-11T06:29:56.999Z,102216.69
2023-02-11T06:33:59.238Z,102221.13
2023-02-11T06:38:01.362Z,102222.47
2023-02-11T06:42:02.862Z,102224.69
2023-02-11T06:46:04.562Z,102218.13
2023-02-11T06:50:08.736Z,102217.53
2023-02-11T06:54:12.175Z,102219.19
2023-02-11T06:58:13.742Z,102214.81
2023-02-11T07:02:15.213Z,102220.00
2023-02-11T07:06:20.508Z,102224.13
2023-02-11T07:10:21.982Z,102226.81
2023-02-11T07:14:23.482Z,102212.81
2023-02-11T07:18:24.935Z,102213.41
2023-02-11T07:22:26.519Z,102204.88
2023-02-11T07:26:29.063Z,102198.22
2023-02-11T07:30:30.486Z,102184.47
2023-02-11T07:34:32.157Z,102191.59
2023-02-11T07:38:35.052Z,102188.59
2023-02-11T07:42:36.856Z,102188.22
2023-02-11T07:46:42.863Z,102171.47
2023-02-11T07:50:44.434Z,102171.91
2023-02-11T07:54:46.132Z,102185.31
2023-02-11T07:58:47.996Z,102187.78
2023-02-11T08:02:49.463Z,102188.22
2023-02-11T08:06:52.782Z,102187.34
2023-02-11T08:10:54.342Z,102184.00
2023-02-11T08:14:56.302Z,102183.72
2023-02-11T08:19:00.542Z,102201.47
2023-02-11T08:23:02.157Z,102206.84
2023-02-11T08:27:03.714Z,102228.06
2023-02-11T08:31:15.852Z,102231.50
2023-02-11T08:35:17.476Z,102223.25
2023-02-11T08:39:22.596Z,102232.69
2023-02-11T08:43:25.226Z,102222.09
2023-02-11T08:47:26.949Z,102239.13
2023-02-11T08:51:31.464Z,102233.16
2023-02-11T08:55:32.913Z,102232.09
2023-02-11T08:59:34.616Z,102215.59
2023-02-11T09:03:36.097Z,102206.25
2023-02-11T09:07:37.569Z,102207.84
2023-02-11T09:11:40.654Z,102208.19
2023-02-11T09:15:45.349Z,102212.28
2023-02-11T09:19:46.822Z,102223.03
2023-02-11T09:23:48.683Z,102221.91
2023-02-11T09:27:51.297Z,102236.13
2023-02-11T09:31:52.910Z,102238.53
2023-02-11T09:35:54.448Z,102248.31
2023-02-11T09:39:55.907Z,102217.38
2023-02-11T09:43:59.668Z,102234.31
2023-02-11T09:48:27.506Z,102236.09
2023-02-11T09:52:41.662Z,102255.72
2023-02-11T09:56:43.164Z,102254.78
2023-02-11T10:01:06.798Z,102269.81
2023-02-11T10:05:29.604Z,102274.22
2023-02-11T10:09:49.733Z,102282.03
2023-02-11T10:14:03.198Z,102282.19
2023-02-11T10:18:34.370Z,102280.09
2023-02-11T10:22:46.900Z,102298.28
2023-02-11T10:26:49.036Z,102288.53
2023-02-11T10:31:15.775Z,102279.63
2023-02-11T10:35:21.629Z,102291.66
2023-02-11T10:39:26.315Z,102291.16
2023-02-11T10:43:30.747Z,102293.97
2023-02-11T10:47:37.683Z,102286.78
2023-02-11T10:51:39.140Z,102277.75
2023-02-11T10:55:50.689Z,102267.47
2023-02-11T10:59:59.122Z,102286.25
2023-02-11T11:04:00.708Z,102284.47
2023-02-11T11:08:05.897Z,102276.84
2023-02-11T11:12:25.088Z,102264.31
2023-02-11T11:16:29.459Z,102253.66
2023-02-11T11:20:36.115Z,102273.97
2023-02-11T11:24:46.518Z,102267.28
2023-02-11T11:29:16.148Z,102265.53
2023-02-11T11:33:24.985Z,102252.97
2023-02-11T11:37:30.107Z,102265.88
2023-02-11T11:41:34.004Z,102272.97
2023-02-11T11:45:35.954Z,102299.50
2023-02-11T11:50:11.975Z,102284.53
2023-02-11T11:54:17.581Z,102284.56
2023-02-11T11:58:22.048Z,102287.00
2023-02-11T12:02:59.944Z,102289.44
2023-02-11T12:07:25.883Z,102283.38
2023-02-11T12:11:44.568Z,102283.94
2023-02-11T12:15:56.163Z,102278.63
2023-02-11T12:20:17.953Z,102276.09
2023-02-11T12:24:27.428Z,102268.84
2023-02-11T12:28:34.919Z,102272.66
2023-02-11T12:33:05.362Z,102278.75
2023-02-11T12:37:19.914Z,102277.22
2023-02-11T12:42:12.134Z,102275.41
2023-02-11T12:46:31.506Z,102265.97
2023-02-11T12:51:00.647Z,102256.47
2023-02-11T12:55:19.181Z,102255.38
2023-02-11T12:59:29.699Z,102251.94
2023-02-11T13:03:44.549Z,102259.78
2023-02-11T13:07:47.597Z,102243.97
2023-02-11T13:11:53.607Z,102255.78
2023-02-11T13:16:09.893Z,102266.47
2023-02-11T13:20:33.325Z,102264.13
2023-02-11T13:24:49.290Z,102255.22
2023-02-11T13:29:17.438Z,102278.25
2023-02-11T13:33:30.064Z,102287.09
2023-02-11T13:37:38.934Z,102294.63
2023-02-11T13:41:41.703Z,102300.59
2023-02-11T13:45:46.652Z,102293.38
2023-02-11T13:49:53.365Z,102301.47
2023-02-11T13:53:57.565Z,102293.53
2023-02-11T13:58:28.119Z,102290.63
2023-02-11T14:02:52.748Z,102303.59
2023-02-11T14:07:47.143Z,102317.38
2023-02-11T14:11:56.189Z,102309.47
2023-02-11T14:16:08.487Z,102323.53
2023-02-11T14:20:36.891Z,102327.09
2023-02-11T14:24:38.345Z,102323.88
2023-02-11T14:28:44.704Z,102333.16
2023-02-11T14:32:58.285Z,102327.53
2023-02-11T14:37:08.919Z,102334.28
2023-02-11T14:41:22.883Z,102323.53
2023-02-11T14:45:28.752Z,102326.00
2023-02-11T14:49:40.221Z,102319.66
2023-02-11T14:53:48.424Z,102330.53
2023-02-11T14:58:11.948Z,102346.31
2023-02-11T15:02:26.127Z,102355.03
2023-02-11T15:06:40.943Z,102352.81
2023-02-11T15:10:44.561Z,102357.75
2023-02-11T15:14:49.095Z,102358.50
2023-02-11T15:18:56.509Z,102361.59
2023-02-11T15:23:04.833Z,102385.94
2023-02-11T15:27:12.699Z,102372.41
2023-02-11T15:31:16.768Z,102380.16
2023-02-11T15:35:18.897Z,102383.94
2023-02-11T15:39:32.451Z,102387.22
2023-02-11T15:43:44.478Z,102395.75
2023-02-11T15:47:53.328Z,102394.47
2023-02-11T15:51:57.079Z,102393.91
2023-02-11T15:56:25.344Z,102399.38
2023-02-11T16:00:35.694Z,102400.91
2023-02-11T16:04:37.772Z,102405.34
2023-02-11T16:08:41.534Z,102401.81
2023-02-11T16:12:54.529Z,102406.53
2023-02-11T16:17:12.028Z,102407.41
2023-02-11T16:21:18.756Z,102416.38
2023-02-11T16:25:22.126Z,102421.53
2023-02-11T16:29:27.212Z,102425.03
2023-02-11T16:33:28.867Z,102421.53
2023-02-11T16:37:30.388Z,102415.56
2023-02-11T16:41:31.885Z,102415.56
2023-02-11T16:45:38.449Z,102430.16
2023-02-11T16:49:41.712Z,102431.69
2023-02-11T16:53:43.162Z,102439.44
2023-02-11T16:57:44.697Z,102439.38
2023-02-11T17:01:47.442Z,102446.00
2023-02-11T17:05:58.097Z,102456.50
2023-02-11T17:09:59.773Z,102465.31
2023-02-11T17:14:01.195Z,102474.66
2023-02-11T17:18:02.973Z,102463.63
2023-02-11T17:22:04.914Z,102472.03
2023-02-11T17:26:07.190Z,102476.09
2023-02-11T17:30:10.231Z,102486.38
2023-02-11T17:34:12.041Z,102488.31
2023-02-11T17:38:13.498Z,102490.50
2023-02-11T17:42:15.080Z,102498.06
2023-02-11T17:46:17.214Z,102499.78
2023-02-11T17:50:18.873Z,102514.13
2023-02-11T17:54:20.850Z,102512.28
2023-02-11T17:58:23.025Z,102509.69
2023-02-11T18:02:24.582Z,102522.22
2023-02-11T18:06:26.289Z,102532.81
2023-02-11T18:10:27.792Z,102529.41
2023-02-11T18:14:29.284Z,102530.56
2023-02-11T18:18:31.296Z,102550.25
2023-02-11T18:22:38.440Z,102548.22
2023-02-11T18:26:40.190Z,102553.47
2023-02-11T18:30:41.680Z,102555.59
2023-02-11T18:34:43.579Z,102564.44
2023-02-11T18:38:45.198Z,102571.91
2023-02-11T18:42:46.823Z,102572.16
2023-02-11T18:46:48.330Z,102593.34
2023-02-11T18:50:49.848Z,102597.41
2023-02-11T18:54:52.231Z,102597.00
2023-02-11T18:58:56.085Z,102606.84
2023-02-11T19:02:58.520Z,102608.53
2023-02-11T19:07:03.149Z,102611.78
2023-02-11T19:11:05.055Z,102617.94
2023-02-11T19:15:07.760Z,102625.94
2023-02-11T19:19:09.548Z,102624.38
2023-02-11T19:23:11.247Z,102627.56
2023-02-11T19:27:12.802Z,102637.44
2023-02-11T19:31:14.623Z,102633.09
2023-02-11T19:35:16.268Z,102656.50
2023-02-11T19:39:18.480Z,102651.81
2023-02-11T19:43:19.921Z,102646.00
2023-02-11T19:47:27.563Z,102645.19
2023-02-11T19:51:30.090Z,102648.63
2023-02-11T19:55:34.641Z,102641.91
2023-02-11T19:59:36.148Z,102638.53
2023-02-11T20:03:39.722Z,102648.88
2023-02-11T20:07:42.890Z,102652.34
2023-02-11T20:11:44.540Z,102660.19
2023-02-11T20:15:45.972Z,102672.06
2023-02-11T20:19:47.430Z,102677.38
2023-02-11T20:23:50.022Z,102678.38
2023-02-11T20:27:51.482Z,102680.09
2023-02-11T20:31:54.088Z,102679.59
2023-02-11T20:36:01.642Z,102680.78
2023-02-11T20:40:03.393Z,102684.22
2023-02-11T20:44:07.466Z,102693.94
2023-02-11T20:48:08.909Z,102707.81
2023-02-11T20:52:10.533Z,102706.31
2023-02-11T20:56:12.385Z,102697.41
2023-02-11T21:00:14.120Z,102711.41
2023-02-11T21:04:21.820Z,102721.16
2023-02-11T21:08:23.249Z,102713.19
2023-02-11T21:12:24.680Z,102716.16
2023-02-11T21:16:26.665Z,102718.03
2023-02-11T21:20:28.193Z,102728.66
2023-02-11T21:24:30.943Z,102735.13
2023-02-11T21:28:32.849Z,102736.31
2023-02-11T21:32:34.355Z,102738.44
2023-02-11T21:36:35.823Z,102757.00
2023-02-11T21:40:37.713Z,102775.50
2023-02-11T21:44:39.211Z,102772.94
2023-02-11T21:48:41.035Z,102773.41
2023-02-11T21:52:42.672Z,102779.06
2023-02-11T21:56:44.533Z,102778.31
2023-02-11T22:00:46.018Z,102787.72
2023-02-11T22:04:47.530Z,102784.25
2023-02-11T22:08:50.391Z,102789.31
2023-02-11T22:12:51.871Z,102792.66
2023-02-11T22:16:53.324Z,102794.97
2023-02-11T22:21:03.305Z,102804.91
2023-02-11T22:25:04.964Z,102815.41
2023-02-11T22:29:06.515Z,102826.38
2023-02-11T22:33:07.902Z,102831.34
2023-02-11T22:37:09.322Z,102829.72
2023-02-11T22:41:11.745Z,102839.09
2023-02-11T22:45:13.212Z,102845.81
2023-02-11T22:49:16.320Z,102860.72
2023-02-11T22:53:17.722Z,102863.47
2023-02-11T22:57:19.109Z,102856.22
2023-02-11T23:01:20.767Z,102876.25
2023-02-11T23:05:22.241Z,102875.13
2023-02-11T23:09:23.647Z,102874.56
2023-02-11T23:13:25.061Z,102874.78
2023-02-11T23:17:28.821Z,102873.38
2023-02-11T23:21:32.848Z,102881.19
2023-02-11T23:25:34.873Z,102883.16
2023-02-11T23:29:36.328Z,102881.47
2023-02-11T23:33:37.744Z,102890.00
2023-02-11T23:37:39.179Z,102895.81
2023-02-11T23:41:40.642Z,102892.31
2023-02-11T23:45:42.032Z,102899.38
2023-02-11T23:49:43.492Z,102893.38
2023-02-11T23:53:49.239Z,102903.59
2023-02-11T23:57:50.669Z,102912.38
